createdAt,value
2022-11-21T00:02:40.990Z,99
2022-11-21T00:12:40.928Z,99
2022-11-21T00:22:40.854Z,99
2022-11-21T00:32:40.815Z,99
2022-11-21T00:42:40.722Z,99
2022-11-21T00:52:40.662Z,99
2022-11-21T01:02:40.574Z,99
2022-11-21T01:12:40.497Z,99
2022-11-21T01:22:40.426Z,99
2022-11-21T01:32:40.347Z,1
2022-11-21T01:42:40.300Z,1
2022-11-21T01:52:40.236Z,1
2022-11-21T02:02:40.160Z,1
2022-11-21T02:12:40.083Z,1
2022-11-21T02:22:40.042Z,1
2022-11-21T02:32:39.953Z,1
2022-11-21T02:42:39.872Z,1
2022-11-21T02:52:39.814Z,1
2022-11-21T03:02:39.734Z,1
2022-11-21T03:12:39.668Z,1
2022-11-21T03:22:39.614Z,1
2022-11-21T03:32:39.524Z,1
2022-11-21T03:42:39.456Z,1
2022-11-21T03:52:39.385Z,1
2022-11-21T04:02:39.304Z,1
2022-11-21T04:12:39.241Z,1
2022-11-21T04:22:39.163Z,1
2022-11-21T04:32:39.109Z,1
2022-11-21T04:42:39.041Z,1
2022-11-21T04:52:38.957Z,1
2022-11-21T05:02:38.911Z,1
2022-11-21T05:12:38.818Z,1
2022-11-21T05:22:38.772Z,1
2022-11-21T05:32:38.683Z,99
2022-11-21T05:42:38.615Z,99
2022-11-21T05:52:38.548Z,99
2022-11-21T06:02:38.516Z,99
2022-11-21T06:12:38.507Z,99
2022-11-21T06:22:38.336Z,99
2022-11-21T06:32:38.451Z,99
2022-11-21T06:38:50.110Z,99
2022-11-21T06:48:49.826Z,99
2022-11-21T06:58:49.669Z,99
2022-11-21T07:09:00.035Z,99
2022-11-21T07:18:49.538Z,99
2022-11-21T07:28:49.484Z,99
2022-11-21T07:38:49.385Z,99
2022-11-21T07:48:49.347Z,99
2022-11-21T07:58:49.250Z,99
2022-11-21T08:08:50.765Z,99
2022-11-21T08:18:49.091Z,99
2022-11-21T08:28:49.047Z,99
2022-11-21T08:38:48.992Z,99
2022-11-21T08:48:48.879Z,99
2022-11-21T08:58:48.821Z,99
2022-11-21T09:08:48.755Z,99
2022-11-21T09:18:48.680Z,99
2022-11-21T09:28:48.726Z,99
2022-11-21T09:38:48.576Z,99
2022-11-21T09:48:48.474Z,99
2022-11-21T09:58:48.421Z,99
2022-11-21T10:08:48.484Z,99
2022-11-21T10:18:49.604Z,99
2022-11-21T10:28:48.188Z,99
2022-11-21T10:38:48.120Z,99
2022-11-21T10:48:48.072Z,99
2022-11-21T10:58:48.289Z,99
2022-11-21T11:08:47.930Z,99
2022-11-21T11:18:47.852Z,99
2022-11-21T11:28:47.966Z,99
2022-11-21T11:38:47.701Z,99
2022-11-21T11:58:47.565Z,99
2022-11-21T12:08:47.780Z,99
2022-11-21T12:18:47.451Z,99
2022-11-21T12:28:47.475Z,99
2022-11-21T12:38:47.275Z,99
2022-11-21T12:48:47.303Z,99
2022-11-21T12:58:47.187Z,99
2022-11-21T13:08:47.156Z,99
2022-11-21T13:18:48.256Z,99
2022-11-21T13:28:46.935Z,99
2022-11-21T13:38:47.009Z,99
2022-11-21T13:48:47.121Z,99
2022-11-21T13:58:47.068Z,99
2022-11-21T14:08:48.033Z,99
2022-11-21T14:18:47.244Z,99
2022-11-21T14:28:46.526Z,99
2022-11-21T14:38:51.040Z,99
2022-11-21T14:48:47.121Z,99
2022-11-21T14:58:47.103Z,99
2022-11-21T15:09:33.258Z,99
2022-11-21T15:18:47.222Z,99
2022-11-21T15:28:47.412Z,99
2022-11-21T15:38:47.060Z,99
2022-11-21T15:48:47.073Z,99
2022-11-21T15:58:46.945Z,99
2022-11-21T16:08:47.072Z,99
2022-11-21T16:18:47.020Z,99
2022-11-21T16:28:46.981Z,99
2022-11-21T16:38:47.015Z,99
2022-11-21T16:48:45.543Z,99
2022-11-21T16:58:45.568Z,99
2022-11-21T17:08:45.408Z,98
2022-11-21T17:18:45.338Z,99
2022-11-21T17:28:46.042Z,99
2022-11-21T17:38:45.190Z,99
2022-11-21T17:48:48.622Z,99
2022-11-21T17:58:45.242Z,99
2022-11-21T18:08:44.979Z,99
2022-11-21T18:18:44.909Z,99
2022-11-21T18:28:44.854Z,99
2022-11-21T18:38:50.307Z,97
2022-11-21T18:49:02.062Z,95
2022-11-21T18:58:44.635Z,87
2022-11-21T19:08:44.543Z,81
2022-11-21T19:18:54.987Z,78
2022-11-21T19:28:44.440Z,70
2022-11-21T19:38:49.109Z,76
2022-11-21T19:48:44.261Z,74
2022-11-21T19:58:44.196Z,64
2022-11-21T20:08:44.135Z,64
2022-11-21T20:18:44.052Z,39
2022-11-21T20:28:43.994Z,45
2022-11-21T20:38:44.014Z,55
2022-11-21T20:48:43.857Z,38
2022-11-21T20:58:43.766Z,48
2022-11-21T21:08:43.706Z,30
2022-11-21T21:18:47.916Z,22
2022-11-21T21:28:43.565Z,32
2022-11-21T21:38:43.499Z,15
2022-11-21T21:48:43.426Z,12
2022-11-21T21:58:43.356Z,15
2022-11-21T22:08:43.275Z,13
2022-11-21T22:18:43.306Z,18
2022-11-21T22:28:43.213Z,14
2022-11-21T22:38:43.068Z,12
2022-11-21T22:48:42.985Z,14
2022-11-21T22:58:42.921Z,1
2022-11-21T23:08:42.851Z,1
2022-11-21T23:18:42.770Z,1
2022-11-21T23:28:42.705Z,7
2022-11-21T23:38:42.625Z,7
2022-11-21T23:48:42.549Z,1
2022-11-21T23:58:42.494Z,1
